Flight Track Log - Related Links

Times and Time Zones

All times are in EDT time to prevent confusion due to time zone crossing. See the EJA618 flight status page for this flight to view local times or setup timezone preferences in your user account.

Time Position Orientation Groundspeed Altitude Reporting Facility
EDT Latitude Longitude Course Direction KTS MPH feet Rate Location/Type
Tue 10:11:12 AM 40.5028 -80.3728 266° West 260 299 6,200  Level Cleveland Center
Tue 10:12:12 AM 40.5028 -80.4739 270° West 276 318 9,500 2,600 Climbing Cleveland Center
Tue 10:13:12 AM 40.5008 -80.5750 269° West 276 318 11,400 1,650 Climbing Cleveland Center
Tue 10:14:12 AM 40.4986 -80.6922 269° West 289 333 12,800 1,250 Climbing Cleveland Center
Tue 10:15:00 AM 40.4667 -81.0321 270° West  Level FlightAware Approximate
Tue 10:15:12 AM 40.4942 -80.8153 267° West 324 373 13,900  Level Cleveland Center
Tue 10:16:00 AM 40.4611 -81.1681 266° West  Level FlightAware Approximate
Tue 10:16:12 AM 40.4981 -80.9461 272° West 348 400 14,900  Level Cleveland Center
Tue 10:17:12 AM 40.5039 -81.0772 273° West 359 413 16,100 1,150 Climbing Cleveland Center
Tue 10:18:12 AM 40.5283 -81.2058 284° West 364 419 17,200 1,100 Climbing Cleveland Center
Tue 10:19:12 AM 40.5586 -81.3347 287° West 369 425 18,300 1,150 Climbing Cleveland Center
Tue 10:20:12 AM 40.5828 -81.4661 284° West 374 430 19,500 1,150 Climbing Cleveland Center
Tue 10:21:12 AM 40.6108 -81.6006 285° West 374 430 20,600 1,150 Climbing Cleveland Center
Tue 10:22:12 AM 40.6431 -81.7322 288° West 380 437 21,800 1,200 Climbing Cleveland Center
Tue 10:23:12 AM 40.6728 -81.8669 286° West 380 437 23,000 1,050 Climbing Cleveland Center
Tue 10:24:12 AM 40.6983 -81.9881 286° West 375 432 23,900 1,050 Climbing Cleveland Center
Tue 10:25:12 AM 40.7281 -82.1203 287° West 375 432 25,100 1,200 Climbing Cleveland Center
Tue 10:26:12 AM 40.7594 -82.2497 288° West 375 432 26,300 1,180 Climbing Cleveland Center
Tue 10:27:14 AM 40.7900 -82.3817 287° West 373 429 27,500 1,113 Climbing Indianapolis Center
Tue 10:28:16 AM 40.8222 -82.5133 288° West 374 430 28,600 1,210 Climbing Indianapolis Center
Tue 10:29:18 AM 40.8578 -82.6700 287° West 377 434 30,000 1,241 Climbing Indianapolis Center
Tue 10:30:12 AM 40.8817 -82.7911 285° West 380 437 31,000 1,148 Climbing Cleveland Center
Tue 10:31:13 AM 40.9103 -82.9239 286° West 375 432 32,200 1,150 Climbing Cleveland Center
Tue 10:32:12 AM 40.9344 -83.0650 283° West 381 438 33,300 908 Climbing Cleveland Center
Tue 10:33:12 AM 40.9544 -83.1978 281° West 387 445 34,000 350 Climbing Cleveland Center
Tue 10:34:12 AM 40.9786 -83.3253 284° West 392 451 34,000  Level Cleveland Center
Tue 10:35:12 AM 41.0083 -83.4725 285° West 405 466 34,000  Level Cleveland Center
Tue 10:36:12 AM 41.0378 -83.6169 285° West 411 473 34,000  Level Cleveland Center
Tue 10:37:12 AM 41.0672 -83.7614 285° West 411 473 34,000  Level Cleveland Center
Tue 10:38:12 AM 41.0944 -83.9033 284° West 411 473 34,000  Level Cleveland Center
Tue 10:39:49 AM 41.1378 -84.1317 284° West 403 464 34,000  Level Chicago Center
Tue 10:40:51 AM 41.1647 -84.2756 284° West 404 465 34,000  Level Chicago Center
Tue 10:41:53 AM 41.1878 -84.4511 280° West 403 464 34,000  Level Chicago Center
Tue 10:42:55 AM 41.1964 -84.6011 274° West 406 467 34,000  Level Chicago Center
Tue 10:43:56 AM 41.2056 -84.7511 275° West 406 467 34,000 -195 Level Chicago Center
Tue 10:44:58 AM 41.2139 -84.8992 274° West 404 465 33,600 -871 Descending Chicago Center
Tue 10:46:00 AM 41.2231 -85.0483 275° West 404 465 32,200 -1,403 Descending Chicago Center
Tue 10:47:02 AM 41.2311 -85.1975 274° West 403 464 30,700 -1,210 Descending Chicago Center
Tue 10:48:04 AM 41.2403 -85.3525 275° West 411 473 29,700 -919 Descending Chicago Center
Tue 10:49:06 AM 41.2517 -85.5397 275° West 420 483 28,800 -1,016 Descending Chicago Center
Tue 10:50:08 AM 41.2592 -85.6964 274° West 421 484 27,600 -1,306 Descending Chicago Center
Tue 10:51:10 AM 41.2700 -85.8561 275° West 432 497 26,100 -1,258 Descending Chicago Center
Tue 10:52:12 AM 41.3039 -86.0117 286° West 437 503 25,000 -919 Descending Chicago Center
Tue 10:53:14 AM 41.3381 -86.1586 287° West 420 483 24,200 -1,210 Descending Chicago Center
Tue 10:54:16 AM 41.3719 -86.3081 287° West 420 483 22,500 -1,597 Descending Chicago Center
Tue 10:55:18 AM 41.4053 -86.4528 287° West 412 474 20,900 -1,548 Descending Chicago Center
Tue 10:56:20 AM 41.4364 -86.5919 287° West 399 459 19,300 -1,610 Descending Chicago Center
Tue 10:57:21 AM 41.4728 -86.7503 287° West 378 435 17,600 -1,512 Descending Chicago Center
Tue 10:58:23 AM 41.5017 -86.8789 287° West 368 423 16,200 -1,403 Descending Chicago Center
Tue 10:59:25 AM 41.5292 -87.0061 286° West 361 415 14,700 -1,417 Descending Chicago Center
Tue 11:00:30 AM 41.5578 -87.1344 287° West 363 418 13,200 -1,512 Descending Chicago Center
Tue 11:01:32 AM 41.6006 -87.2769 292° West 353 406 11,500 -1,317 Descending Chicago Center
Tue 11:02:33 AM 41.6592 -87.3708 310° West 338 389 10,500 -1,171 Descending Chicago Center
Tue 11:03:35 AM 41.7069 -87.4511 309° West 289 333 9,100 -1,403 Descending Chicago Center
Tue 11:04:37 AM 41.7547 -87.5306 309° West 279 321 7,600 -1,016 Descending Chicago Center
Tue 11:05:39 AM 41.8008 -87.6064 309° West 269 310 7,000 -290 Descending Chicago Center
Tue 11:06:41 AM 41.8569 -87.6653 322° Northwest 234 269 7,000  Level Chicago Center
Tue 11:07:42 AM 41.9200 -87.6722 355° North 232 267 7,000 -439 Level Chicago Center
Tue 11:08:44 AM 41.9744 -87.6681 North 204 235 6,100 -1,073 Descending Chicago Center
Tue 11:09:45 AM 42.0311 -87.6642 North 205 236 4,800 -1,024 Descending Chicago Center
Tue 11:10:47 AM 42.0847 -87.6494 12° North 201 231 4,000 -629 Descending Chicago Center
Tue 11:11:49 AM 42.1228 -87.6758 333° Northwest 194 223 3,500 -488 Descending Chicago Center
Tue 11:12:50 AM 42.1339 -87.7392 283° West 183 211 3,000 -244 Descending Chicago Center
Tue 11:13:52 AM 42.1047 -87.7817 227° Southwest 166 191 3,000 -290 Level Chicago Center
Tue 11:14:54 AM 42.0678 -87.8197 217° Southwest 165 190 2,400 -726 Descending Chicago Center
Tue 11:15:56 AM 42.0300 -87.8617 220° Southwest 171 197 1,500 -537 Descending Chicago Center
Tue 11:16:57 AM 41.9942 -87.9017 220° Southwest 171 197 1,300 -197 Descending Chicago Center
Tue 11:18:00 AM 41.9817 -87.9067 217° Southwest  Level Estimated
Tue 11:25:00 AM 41.9817 -87.9067 217° Southwest  Level Estimated

Login

Don't have an account? Register now (free) for customized features, flight alerts, and more!